Peosta, Iowa
Current Conditions -  °F | °C
As of 5:53 AM on Friday 28 Nov 2014 (Local Time) from KDBQ Reporting Station
Overcast Overcast  
Wind Chill:   Ceiling: 12000
Heat Index: 14°   Visibility: 10mi
Dew Point:   Wind: 12mph
Humidity: 80%   Direction: 150°SSE
Pressure: 30.16"   Gusts: NA
Location:  42.45°N, 90.85°W
Report Text: KDBQ 281153Z 15010KT 10SM FEW095 OVC120 M10/M13 A3016 RMK AO2 SLP236 60000 T11001128 11100 21111 56037
Loading
Personal Weather Stations






























Interactive Weather Map New forecast layout! Learn more

10-Day Weather Forecast

Advertisements
Track Severe Weather on mobile